Decoded Metar for CYQB (QUEBEC in QC, CANADA) (IATA:YQB) | Meteo·Mobile Aviation Weather
aviador You're here:

CYQB Decoded Metar

QUEBEC in QC, CANADA
Report Time2019-01-18 12:00:00
UTC Time2019-01-18 12:19:12
Flight Rules mvfr MVFR
Wind030° at 04 kt
W.Decomp.*RWY 06: 3.9 kt HW 0.9 kt LCW
RWY 12: 1.2 kt HW 3.8 kt LCW
W.Rank030° ranks 19
Current wind is below 030° avg. (4.3)
Visibility8047 m
Phenomena:Light Snow
Clouds:Few 038 Hf
Broken 047 Hf
Overcast 080 Hf
Expected CloudBase > 1,200 ft AGL from Temp-Dew spread
Ceiling4,700 ft
Temp-16°C (ISA -31)
Dew Point-19°C (78% RH)
AAT-21.0°C
QNH1019 hPa
Density Alt-3,819 ft
Elevation240 ft
Report Wrong Elevation
Raw Report
CYQB 181200Z 03004KT 5SM -SN FEW038 BKN047 OVC080 M16/M19 A3009
RMK SC2SC5AC1 SLP198=

Extra information for CYQB:More info

Metar Taf Metar & Taf Last 4 Metars F.Rules Stats Wind Profile Meteogram Temp Stats Airport Information Weather charts Add Link Nearby VenuesMetar ALERT Operation Metar Decoded Social comments

navcanada